createdAt,value
2023-04-11T00:05:50.973Z,6.65
2023-04-11T00:20:53.755Z,6.52
2023-04-11T00:35:56.746Z,6.60
2023-04-11T00:50:59.942Z,6.55
2023-04-11T01:06:06.460Z,6.53
2023-04-11T01:21:09.784Z,6.37
2023-04-11T01:36:13.040Z,6.27
2023-04-11T01:51:15.897Z,6.26
2023-04-11T02:06:18.706Z,6.08
2023-04-11T02:21:22.388Z,5.91
2023-04-11T02:36:26.792Z,5.78
2023-04-11T02:51:29.658Z,5.69
2023-04-11T03:06:33.334Z,5.66
2023-04-11T03:21:36.189Z,5.54
2023-04-11T03:36:38.908Z,5.37
2023-04-11T03:51:41.695Z,5.31
2023-04-11T04:06:45.995Z,5.34
2023-04-11T04:21:50.092Z,5.35
2023-04-11T04:36:56.374Z,5.37
2023-04-11T04:51:59.224Z,5.37
2023-04-11T05:07:02.065Z,5.52
2023-04-11T05:22:04.634Z,5.99
2023-04-11T05:37:07.294Z,6.14
2023-04-11T05:52:10.103Z,6.12
2023-04-11T06:07:13.005Z,6.19
2023-04-11T06:22:16.010Z,6.48
2023-04-11T06:37:19.072Z,6.85
2023-04-11T06:52:22.160Z,7.24
2023-04-11T07:07:24.789Z,7.52
2023-04-11T07:22:29.251Z,7.72
2023-04-11T07:37:32.602Z,8.10
2023-04-11T07:52:35.321Z,8.39
2023-04-11T08:07:37.810Z,8.79
2023-04-11T08:22:44.462Z,9.33
2023-04-11T08:37:48.798Z,9.98
2023-04-11T08:52:53.008Z,10.43
2023-04-11T09:07:57.294Z,11.03
2023-04-11T09:23:00.210Z,11.76
2023-04-11T09:38:05.149Z,12.48
2023-04-11T09:53:09.000Z,12.93
2023-04-11T10:08:32.736Z,13.60
2023-04-11T10:24:07.953Z,14.50
2023-04-11T10:39:11.125Z,15.51
2023-04-11T10:54:26.853Z,16.00
2023-04-11T11:09:30.671Z,15.98
2023-04-11T11:24:33.292Z,15.66
2023-04-11T11:39:36.152Z,14.15
2023-04-11T11:54:47.125Z,12.76
2023-04-11T12:09:49.862Z,11.14
2023-04-11T12:24:53.097Z,10.52
2023-04-11T12:39:55.700Z,9.88
2023-04-11T12:54:58.361Z,9.41
2023-04-11T13:10:02.623Z,9.11
2023-04-11T13:25:07.047Z,9.07
2023-04-11T13:40:12.355Z,9.34
2023-04-11T13:55:16.065Z,9.78
2023-04-11T14:10:18.857Z,10.38
2023-04-11T14:25:22.476Z,10.31
2023-04-11T14:40:25.377Z,10.05
2023-04-11T14:55:28.337Z,10.23
2023-04-11T15:10:31.167Z,10.27
2023-04-11T15:25:33.742Z,10.16
2023-04-11T15:40:37.802Z,10.24
2023-04-11T15:55:42.042Z,10.35
2023-04-11T16:10:44.927Z,10.39
2023-04-11T16:25:47.571Z,10.35
2023-04-11T16:40:50.325Z,10.48
2023-04-11T16:55:53.628Z,10.58
2023-04-11T17:11:07.367Z,10.38
2023-04-11T17:26:12.157Z,9.73
2023-04-11T17:41:15.822Z,9.26
2023-04-11T17:56:19.511Z,8.94
2023-04-11T18:11:22.487Z,8.45
2023-04-11T18:26:25.268Z,8.14
2023-04-11T18:41:27.979Z,8.17
2023-04-11T18:56:30.805Z,7.83
2023-04-11T19:11:35.213Z,7.63
2023-04-11T19:26:38.189Z,7.52
2023-04-11T19:41:44.033Z,7.48
2023-04-11T19:56:49.229Z,7.33
2023-04-11T20:11:52.167Z,6.94
2023-04-11T20:26:56.972Z,6.57
2023-04-11T20:42:02.596Z,6.14
2023-04-11T20:57:05.371Z,5.80
2023-04-11T21:12:08.091Z,5.48
2023-04-11T21:27:10.662Z,5.18
2023-04-11T21:42:13.387Z,4.87
2023-04-11T21:57:15.986Z,4.57
2023-04-11T22:12:18.799Z,4.22
2023-04-11T22:27:21.514Z,4.04
2023-04-11T22:42:24.835Z,3.75
2023-04-11T22:57:27.536Z,3.48
2023-04-11T23:12:30.795Z,3.44
2023-04-11T23:27:33.538Z,3.30
2023-04-11T23:42:37.629Z,3.04
2023-04-11T23:57:41.024Z,2.92
